Maersk Wakamatsu — 3EZG — position and weather

sailwx.info

Track history (hours):
 
Tides and Currents Weather Stations Pressure Air Temp Water Temp Dewpoint Dewpoint Depression Visibility Wind Speed Wind Dir Waves Ship Positions

Maersk Wakamatsu

Last reported at 2017-Nov-19 20:00 UTC. Time now 2017-Nov-21 17:44 UTC.
Position N 11°11' W 074°43'.

Length 172 m; draft 7.2 m.

Type: Cargo ship. MMSI: 370484000.

Date/timePositionNaut miles runAvg speedWind from/ knotsBaromVisibWave heightAir tempDewpointWater temp
2017-Nov-19 20:00N 11°11' W 074°43'711.8
2017-Nov-19 19:25N 11°11' W 074°50'4 9.2
2017-Nov-19 19:01N 11°08' W 074°52'611.0
2017-Nov-19 18:30N 11°03' W 074°50'6 0.5
2017-Nov-19 06:18N 10°58' W 074°46'0 0.0
2017-Nov-19 05:54N 10°58' W 074°46'0 0.0
2017-Nov-19 05:24N 10°58' W 074°46'0 0.0
2017-Nov-19 04:54N 10°58' W 074°46'0 0.0
2017-Nov-19 04:30N 10°58' W 074°46'0 0.0
2017-Nov-19 04:00N 10°58' W 074°46'2 2.3
2017-Nov-19 03:13N 10°60' W 074°46'2 8.2
2017-Nov-19 02:59N 11°01' W 074°47'58 2.7
2017-Nov-18 05:36N 10°24' W 075°32'0 0.0
2017-Nov-18 05:30N 10°24' W 075°32'2 0.2
2017-Nov-17 22:38N 10°23' W 075°32'1 9.4
2017-Nov-17 22:30N 10°22' W 075°32'4 8.5
2017-Nov-17 22:00N 10°19' W 075°35'3 5.5
2017-Nov-17 21:30N 10°19' W 075°38'0 0.6
2017-Nov-17 21:00N 10°19' W 075°38'1 2.0
2017-Nov-17 20:30N 10°19' W 075°37'1 1.3
2017-Nov-17 19:59N 10°19' W 075°38'3 6.2
2017-Nov-17 19:30N 10°19' W 075°41'4 8.2
2017-Nov-17 19:00N 10°22' W 075°43'510.9
2017-Nov-17 18:30N 10°28' W 075°42'510.9
2017-Nov-17 18:00N 10°32' W 075°40'611.3
2017-Nov-17 17:30N 10°37' W 075°37'610.9
2017-Nov-17 17:00N 10°42' W 075°35'810.5
2017-Nov-17 16:16N 10°49' W 075°31'310.1
2017-Nov-17 16:00N 10°51' W 075°29'3214.0
2017-Nov-17 13:43N 11°08' W 075°02'415.4
2017-Nov-17 13:30N 11°09' W 074°58'815.4
2017-Nov-17 13:00N 11°13' W 074°52'  
Track history (hours):
 
Tides and Currents Weather Stations Pressure Air Temp Water Temp Dewpoint Dewpoint Depression Visibility Wind Speed Wind Dir Waves Ship Positions

Maersk Wakamatsu

Last reported at 2017-Nov-19 20:00 UTC. Time now 2017-Nov-21 17:44 UTC.
Position N 11°11' W 074°43'.

Length 172 m; draft 7.2 m.

Type: Cargo ship. MMSI: 370484000.

Date/timePositionNaut miles runAvg speedWind from/ knotsBaromVisibWave heightAir tempDewpointWater temp
2017-Nov-19 20:00N 11°11' W 074°43'711.8
2017-Nov-19 19:25N 11°11' W 074°50'4 9.2
2017-Nov-19 19:01N 11°08' W 074°52'611.0
2017-Nov-19 18:30N 11°03' W 074°50'6 0.5
2017-Nov-19 06:18N 10°58' W 074°46'0 0.0
2017-Nov-19 05:54N 10°58' W 074°46'0 0.0
2017-Nov-19 05:24N 10°58' W 074°46'0 0.0
2017-Nov-19 04:54N 10°58' W 074°46'0 0.0
2017-Nov-19 04:30N 10°58' W 074°46'0 0.0
2017-Nov-19 04:00N 10°58' W 074°46'2 2.3
2017-Nov-19 03:13N 10°60' W 074°46'2 8.2
2017-Nov-19 02:59N 11°01' W 074°47'58 2.7
2017-Nov-18 05:36N 10°24' W 075°32'0 0.0
2017-Nov-18 05:30N 10°24' W 075°32'2 0.2
2017-Nov-17 22:38N 10°23' W 075°32'1 9.4
2017-Nov-17 22:30N 10°22' W 075°32'4 8.5
2017-Nov-17 22:00N 10°19' W 075°35'3 5.5
2017-Nov-17 21:30N 10°19' W 075°38'0 0.6
2017-Nov-17 21:00N 10°19' W 075°38'1 2.0
2017-Nov-17 20:30N 10°19' W 075°37'1 1.3
2017-Nov-17 19:59N 10°19' W 075°38'3 6.2
2017-Nov-17 19:30N 10°19' W 075°41'4 8.2
2017-Nov-17 19:00N 10°22' W 075°43'510.9
2017-Nov-17 18:30N 10°28' W 075°42'510.9
2017-Nov-17 18:00N 10°32' W 075°40'611.3
2017-Nov-17 17:30N 10°37' W 075°37'610.9
2017-Nov-17 17:00N 10°42' W 075°35'810.5
2017-Nov-17 16:16N 10°49' W 075°31'310.1
2017-Nov-17 16:00N 10°51' W 075°29'3214.0
2017-Nov-17 13:43N 11°08' W 075°02'415.4
2017-Nov-17 13:30N 11°09' W 074°58'815.4
2017-Nov-17 13:00N 11°13' W 074°52'  

Dump ship's entire track history